Bible Grove, Illinois
Current Conditions -  °F | °C
As of 11:15 PM on Friday 24 Oct 2014 (Local Time) from KFOA Reporting Station
Clear Clear  
Wind Chill: 12°   Ceiling: Unl
Heat Index: 12°   Visibility: 10mi
Dew Point: 11°   Wind: 5mph
Humidity: 91%   Direction: 200°SSW
Pressure: 30.03"   Gusts: NA
Location:  38.8267°N, 88.5024°W
Report Text: KFOA 250415Z AUTO 20004KT 10SM CLR 12/11 A3003 RMK AO2 T01210106
Loading
Personal Weather Stations






























Interactive Weather Map
Tropical Storm Tracking
New forecast layout! Learn more

10-Day Weather Forecast

Advertisements
Track Severe Weather on mobile